• Join FlightAware (Why Join?)
  • Login
  • US Flag 
06:35AM EST


 

Airport Tracker/Info


-or-


 

Live Flight TrackerFlight Track Log ✈ N960DL ✈ 28-Apr-2013 ✈ KATL - KBDL

Flight Track Log - Related Links

Times and Time Zones

All times are in EDT time to prevent confusion due to time zone crossing. See the N960DL flight status page for this flight to view local times or setup timezone preferences in your user account.

Time Position Orientation Groundspeed Altitude Reporting Facility
EDT Latitude Longitude Course Direction KTS MPH feet Rate Location/Type
01:19PM 33.6333 -84.4833 53° Northeast 191 220 2,500  Level Atlanta TRACON
01:20PM 33.6000 -84.5667 244° Southwest 245 282 4,800 2,700 Climbing Atlanta TRACON
01:21PM 33.5500 -84.6000 209° Southwest 268 308 7,900 1,680 Climbing Atlanta TRACON
01:22PM 33.8133 -83.8725 54° Northeast  Level FlightAware Approximate
01:23PM 33.8884 -83.7543 48° Northeast  Level FlightAware Approximate
01:23PM 33.4047 -84.5789 173° South 274 315 10,000  Level Atlanta Center
01:24PM 33.9657 -83.6381 53° Northeast  Level FlightAware Approximate
01:24PM 33.3822 -84.4842 106° East 255 293 11,000  Level Atlanta Center
01:25PM 33.3931 -84.3647 84° East 308 354 12,600 2,040 Climbing Atlanta Center
01:26PM 33.4225 -84.2478 73° East 357 411 15,100 2,280 Climbing Atlanta Center
01:27PM 33.5000 -84.1633 42° Northeast 349 402 17,200 1,680 Climbing Atlanta Center
01:28PM 33.5814 -84.0836 39° Northeast 359 413 18,500 960 Climbing Atlanta Center
01:29PM 33.6669 -83.9939 41° Northeast 391 450 19,200 780 Climbing Atlanta Center
01:30PM 33.7608 -83.8989 40° Northeast 418 481 20,100 780 Climbing Atlanta Center
01:31PM 33.8586 -83.7961 41° Northeast 449 517 20,800 960 Climbing Atlanta Center
01:32PM 33.9564 -83.6781 45° Northeast 472 543 22,100 1,260 Climbing Atlanta Center
01:33PM 34.0394 -83.5475 52° Northeast 490 564 23,400 1,140 Climbing Atlanta Center
01:34PM 34.1244 -83.4114 53° Northeast 505 581 24,400 1,260 Climbing Atlanta Center
01:35PM 34.2053 -83.2803 53° Northeast 505 581 26,000 1,200 Climbing Atlanta Center
01:36PM 34.2817 -83.1564 53° Northeast 505 581 26,900 900 Climbing Atlanta Center
01:37PM 34.3639 -83.0222 53° Northeast 505 581 27,800 960 Climbing Atlanta Center
01:38PM 34.4506 -82.8875 52° Northeast 511 588 28,900 600 Climbing Atlanta Center
01:39PM 34.5347 -82.7528 53° Northeast 506 582 29,000  Climbing Atlanta Center
01:40PM 34.6103 -82.6153 56° Northeast 496 571 29,000  Level Atlanta Center
01:41PM 34.6944 -82.4850 52° Northeast 491 565 29,000  Level Atlanta Center
01:42PM 34.7842 -82.3417 53° Northeast 491 565 29,000  Level Atlanta Center
01:43PM 34.8597 -82.2161 54° Northeast 496 571 29,000  Level Atlanta Center
01:44PM 34.9514 -82.0722 52° Northeast 490 564 29,000  Level Atlanta Center
01:45PM 35.0325 -81.9308 55° Northeast 490 564 29,000  Level Atlanta Center
01:46PM 35.0992 -81.8072 57° Northeast 490 564 29,000  Level Atlanta Center
01:47PM 35.1717 -81.6681 57° Northeast 495 570 29,000  Level Atlanta Center
01:48PM 35.2481 -81.5261 57° Northeast 490 564 29,000  Level Atlanta Center
01:49PM 35.3203 -81.3839 58° Northeast 490 564 29,000  Level Atlanta Center
01:50PM 35.3942 -81.2414 58° Northeast 490 564 29,000  Level Atlanta Center
01:51PM 35.4681 -81.0936 58° Northeast 496 571 29,000  Level Atlanta Center
01:52PM 35.5436 -80.9478 57° Northeast 501 577 29,000  Level Atlanta Center
01:53PM 35.6172 -80.8044 58° Northeast 501 577 29,000  Level Atlanta Center
01:54PM 35.6925 -80.6611 57° Northeast 501 577 29,000  Level Atlanta Center
01:55PM 35.7658 -80.5172 58° Northeast 506 582 29,000  Level Atlanta Center
01:56PM 35.8408 -80.3756 57° Northeast 498 573 29,000  Level Atlanta Center
01:58PM 36.0036 -80.0647 57° Northeast 489 563 29,000  Level Washington Center
01:59PM 36.0756 -79.9250 57° Northeast 482 555 29,000  Level Washington Center
02:00PM 36.1536 -79.7850 55° Northeast 482 555 29,000  Level Washington Center
02:01PM 36.2336 -79.6425 55° Northeast 494 568 29,000  Level Washington Center
02:02PM 36.3111 -79.5050 55° Northeast 494 568 29,000  Level Washington Center
02:03PM 36.3753 -79.3919 55° Northeast 494 568 29,000  Level Washington Center
02:04PM 36.4683 -79.2233 56° Northeast 494 568 29,000  Level Washington Center
02:05PM 36.5386 -79.1025 54° Northeast 494 568 29,100 480 Climbing Washington Center
02:06PM 36.6133 -78.9664 56° Northeast 479 551 30,000 420 Climbing Washington Center
02:07PM 36.6903 -78.8244 56° Northeast 479 551 30,000  Level Washington Center
02:08PM 36.7692 -78.6853 55° Northeast 489 563 30,000 300 Level Washington Center
02:09PM 36.8458 -78.5428 56° Northeast 489 563 30,700 780 Climbing Washington Center
02:10PM 36.9286 -78.3928 55° Northeast 484 557 31,600 660 Climbing Washington Center
02:11PM 37.0092 -78.2475 55° Northeast 484 557 32,000 180 Climbing Washington Center
02:12PM 37.0831 -78.1094 56° Northeast 484 557 32,000  Level Washington Center
02:13PM 37.1589 -77.9658 56° Northeast 484 557 32,000  Level Washington Center
02:14PM 37.2347 -77.8222 56° Northeast 484 557 32,000  Level Washington Center
02:15PM 37.3103 -77.6833 56° Northeast 484 557 32,000  Level Washington Center
02:16PM 37.3858 -77.5417 56° Northeast 484 557 32,000  Level Washington Center
02:17PM 37.4608 -77.3997 56° Northeast 484 557 32,000  Level Washington Center
02:18PM 37.5483 -77.2736 49° Northeast 479 551 32,000  Level Washington Center
02:19PM 37.6497 -77.1708 39° Northeast 461 531 32,000  Level Washington Center
02:20PM 37.7511 -77.0653 39° Northeast 461 531 32,000  Level Washington Center
02:21PM 37.8628 -76.9781 32° Northeast 461 531 32,000  Level Washington Center
02:22PM 37.9742 -76.8983 29° Northeast 461 531 32,000  Level Washington Center
02:23PM 38.0836 -76.8158 31° Northeast 456 525 32,000  Level Washington Center
02:24PM 38.1928 -76.7303 32° Northeast 456 525 32,000  Level Washington Center
02:25PM 38.3019 -76.6475 31° Northeast 443 510 32,000  Level Washington Center
02:26PM 38.3903 -76.5558 39° Northeast 448 516 32,000  Level Washington Center
02:27PM 38.4872 -76.4458 42° Northeast 461 531 32,000  Level Washington Center
02:28PM 38.5878 -76.3381 40° Northeast 461 531 32,000  Level Washington Center
02:29PM 38.6864 -76.2325 40° Northeast 461 531 32,000  Level Washington Center
02:30PM 38.7997 -76.1164 39° Northeast 466 536 32,000  Level Washington Center
02:31PM 38.8981 -76.0158 39° Northeast 466 536 32,000  Level Washington Center
02:32PM 38.9964 -75.9094 40° Northeast 461 531 32,000  Level Washington Center
02:33PM 39.0944 -75.8056 39° Northeast 454 522 32,000  Level Washington Center
02:34PM 39.1906 -75.6986 41° Northeast 454 522 32,000  Level Washington Center
02:35PM 39.2883 -75.5917 40° Northeast 454 522 32,000  Level Washington Center
02:36PM 39.3842 -75.4869 40° Northeast 454 522 32,000  Level Washington Center
02:37PM 39.4819 -75.3819 40° Northeast 454 522 32,000  Level Washington Center
02:38PM 39.5797 -75.2739 40° Northeast 454 522 32,000 -480 Level Washington Center
02:40PM 39.7489 -75.0883 40° Northeast 471 542 30,800 -1,200 Descending New York Center
02:41PM 39.8575 -74.9678 40° Northeast 471 542 28,700 -1,920 Descending New York Center
02:42PM 39.9444 -74.8700 41° Northeast 463 533 27,000 -900 Descending New York Center
02:43PM 40.0350 -74.7208 52° Northeast 470 541 27,000  Level New York Center
02:44PM 40.1125 -74.5814 54° Northeast 470 541 27,000  Level New York Center
02:45PM 40.1922 -74.4364 54° Northeast 475 547 27,000  Level New York Center
02:46PM 40.2672 -74.2961 55° Northeast 475 547 27,000  Level New York Center
02:47PM 40.3422 -74.1586 54° Northeast 475 547 27,000  Level New York Center
02:48PM 40.4192 -74.0150 55° Northeast 475 547 27,000  Level New York Center
02:49PM 40.4939 -73.8739 55° Northeast 475 547 27,000 -1,020 Level New York Center
02:52PM 40.6439 -73.5861 55° Northeast 468 539 23,800 -1,920 Descending Boston Center
02:53PM 40.7289 -73.4206 56° Northeast 457 526 20,700 -2,460 Descending Boston Center
02:54PM 40.8028 -73.2956 52° Northeast 442 509 18,900 -1,200 Descending Boston Center
02:55PM 40.8869 -73.1978 41° Northeast 420 483 18,300 -900 Descending Boston Center
02:56PM 40.9708 -73.0997 41° Northeast 408 470 17,200 -1,140 Descending Boston Center
02:57PM 41.0547 -72.9989 42° Northeast 402 463 16,100 -1,200 Descending Boston Center
02:58PM 41.1344 -72.9031 42° Northeast 395 455 14,900 -1,860 Descending Boston Center
02:58PM 41.2139 -72.8153 40° Northeast 387 445 12,700 -2,280 Descending Boston Center
02:59PM 41.2767 -72.7356 44° Northeast 379 436 11,100 -1,500 Descending Boston Center
03:00PM 41.3058 -72.7192 23° Northeast 383 441 11,000 -300 Descending Boston Center
03:00PM 41.3725 -72.7278 354° North 356 410 10,800 -600 Descending Boston Center
03:01PM 41.3956 -72.7333 350° North 333 383 10,400 -780 Descending Boston Center
03:01PM 41.4581 -72.7558 345° North 319 367 10,100 -300 Descending Boston Center
03:02PM 41.4892 -72.7672 345° North 320 368 10,100 -1,020 Level Boston Center
03:02PM 41.5350 -72.7811 347° North 284 327 9,100 -1,500 Descending Boston Center
03:03PM 41.5558 -72.7758 11° North 283 326 8,600 -1,680 Descending Boston Center
03:03PM 41.6122 -72.7706 North 273 314 7,400 -1,680 Descending Boston Center
03:04PM 41.6456 -72.7511 24° Northeast 271 312 6,600 -1,620 Descending Boston Center
03:04PM 41.6811 -72.7292 25° Northeast 268 308 5,800 -1,620 Descending Boston Center
03:05PM 41.7186 -72.7044 26° Northeast 265 305 5,000 -840 Descending Boston Center
03:05PM 41.7478 -72.6850 26° Northeast 266 306 5,000  Level Boston Center
03:06PM 41.7792 -72.6600 31° Northeast 260 299 5,000  Level Boston Center
03:06PM 41.8083 -72.6239 43° Northeast 277 319 5,000  Level Boston Center
03:07PM 41.8356 -72.5878 45° Northeast 260 299 5,000  Level Boston Center
03:07PM 41.8564 -72.5711 31° Northeast 229 264 5,000  Level Boston Center
03:08PM 41.8897 -72.5656 North 228 262 5,000 -840 Level Boston Center
03:08PM 41.9189 -72.5628 North 232 267 4,200 -2,040 Descending Boston Center
03:09PM 41.9606 -72.5544 North 223 257 3,000 -2,040 Descending Boston Center